createdAt,value
2022-12-09T00:00:10.293Z,42.31
2022-12-09T00:00:43.076Z,42.45
2022-12-09T00:01:19.950Z,42.50
2022-12-09T00:01:52.388Z,42.79
2022-12-09T00:02:24.912Z,42.81
2022-12-09T00:02:59.955Z,42.80
2022-12-09T00:03:32.887Z,42.71
2022-12-09T00:04:05.614Z,42.75
2022-12-09T00:04:40.640Z,42.60
2022-12-09T00:05:13.190Z,42.67
2022-12-09T00:05:45.545Z,42.72
2022-12-09T00:06:21.575Z,42.77
2022-12-09T00:06:54.033Z,42.42
2022-12-09T00:07:26.252Z,42.59
2022-12-09T00:08:01.168Z,42.65
2022-12-09T00:08:33.633Z,42.48
2022-12-09T00:09:06.327Z,42.75
2022-12-09T00:09:41.366Z,42.81
2022-12-09T00:10:13.581Z,42.71
2022-12-09T00:10:45.992Z,42.44
2022-12-09T00:11:24.271Z,42.66
2022-12-09T00:11:56.643Z,42.29
2022-12-09T00:12:28.984Z,42.38
2022-12-09T00:13:03.907Z,42.82
2022-12-09T00:13:36.625Z,42.67
2022-12-09T00:14:10.311Z,42.41
2022-12-09T00:14:45.149Z,42.45
2022-12-09T00:15:17.655Z,42.45
2022-12-09T00:15:50.107Z,42.43
2022-12-09T00:16:25.641Z,42.72
2022-12-09T00:16:58.188Z,42.75
2022-12-09T00:17:31.329Z,42.79
2022-12-09T00:18:06.393Z,42.36
2022-12-09T00:18:38.813Z,42.42
2022-12-09T00:19:13.908Z,42.38
2022-12-09T00:19:46.933Z,42.73
2022-12-09T00:20:19.416Z,42.73
2022-12-09T00:20:54.477Z,42.69
2022-12-09T00:21:32.347Z,42.72
2022-12-09T00:22:04.940Z,42.50
2022-12-09T00:22:39.864Z,42.50
2022-12-09T00:23:12.221Z,42.78
2022-12-09T00:23:44.743Z,42.68
2022-12-09T00:24:19.600Z,42.77
2022-12-09T00:24:51.918Z,42.60
2022-12-09T00:25:24.396Z,42.55
2022-12-09T00:26:00.111Z,42.45
2022-12-09T00:26:35.003Z,42.75
2022-12-09T00:27:07.399Z,42.82
2022-12-09T00:27:42.308Z,42.43
2022-12-09T00:28:14.552Z,42.36
2022-12-09T00:28:47.627Z,42.38
2022-12-09T00:29:22.707Z,42.40
2022-12-09T00:29:55.182Z,42.48
2022-12-09T00:30:27.678Z,42.63
2022-12-09T00:31:03.096Z,42.26
2022-12-09T00:31:36.956Z,42.77
2022-12-09T00:32:10.364Z,42.63
2022-12-09T00:32:45.792Z,42.72
2022-12-09T00:33:18.700Z,42.61
2022-12-09T00:33:51.761Z,42.68
2022-12-09T00:34:26.670Z,42.37
2022-12-09T00:34:58.913Z,42.69
2022-12-09T00:35:31.131Z,42.55
2022-12-09T00:36:07.364Z,42.64
2022-12-09T00:36:42.813Z,42.77
2022-12-09T00:37:15.130Z,42.42
2022-12-09T00:37:47.624Z,42.51
2022-12-09T00:38:23.916Z,42.37
2022-12-09T00:38:57.437Z,42.43
2022-12-09T00:39:29.874Z,42.30
2022-12-09T00:40:05.273Z,42.71
2022-12-09T00:40:37.996Z,42.52
2022-12-09T00:41:10.497Z,42.32
2022-12-09T00:41:49.268Z,42.61
2022-12-09T00:42:21.732Z,42.33
2022-12-09T00:42:54.153Z,42.54
2022-12-09T00:43:29.295Z,42.68
2022-12-09T00:44:01.795Z,42.65
2022-12-09T00:44:34.116Z,42.24
2022-12-09T00:45:11.248Z,42.64
2022-12-09T00:45:43.520Z,42.38
2022-12-09T00:46:16.644Z,42.29
2022-12-09T00:46:52.359Z,42.25
2022-12-09T00:47:24.735Z,42.37
2022-12-09T00:47:57.197Z,42.29
2022-12-09T00:48:34.443Z,42.29
2022-12-09T00:49:06.992Z,42.36
2022-12-09T00:49:41.959Z,42.19
2022-12-09T00:50:14.519Z,42.43
2022-12-09T00:50:47.287Z,42.17
2022-12-09T00:51:24.188Z,42.65
2022-12-09T00:51:56.605Z,42.20
2022-12-09T00:52:28.869Z,42.34
2022-12-09T00:53:03.705Z,42.49
2022-12-09T00:53:35.943Z,42.20
2022-12-09T00:54:11.495Z,42.63
2022-12-09T00:54:43.879Z,42.26
2022-12-09T00:55:16.681Z,42.21
2022-12-09T00:55:51.910Z,42.42
2022-12-09T00:56:25.481Z,42.63
2022-12-09T00:57:00.559Z,42.07
2022-12-09T00:57:35.525Z,42.51
2022-12-09T00:58:07.936Z,42.67
2022-12-09T00:58:40.358Z,42.29
2022-12-09T00:59:15.301Z,42.47
2022-12-09T00:59:47.618Z,42.44
2022-12-09T01:00:20.372Z,42.18
2022-12-09T01:00:56.332Z,42.38
2022-12-09T01:01:30.241Z,42.50
2022-12-09T01:02:02.731Z,42.38
2022-12-09T01:02:39.207Z,42.53
2022-12-09T01:03:13.092Z,42.33
2022-12-09T01:03:45.944Z,42.46
2022-12-09T01:04:20.969Z,42.29
2022-12-09T01:04:53.437Z,42.77
2022-12-09T01:05:25.684Z,42.64
2022-12-09T01:06:00.802Z,42.60
2022-12-09T01:06:33.250Z,42.37
2022-12-09T01:07:05.588Z,42.61
2022-12-09T01:07:40.751Z,42.40
2022-12-09T01:08:13.599Z,42.19
2022-12-09T01:08:46.373Z,42.37
2022-12-09T01:09:22.783Z,42.42
2022-12-09T01:09:55.034Z,42.36
2022-12-09T01:10:28.543Z,42.57
2022-12-09T01:11:03.456Z,42.17
2022-12-09T01:11:36.754Z,42.29
2022-12-09T01:12:11.715Z,42.29
2022-12-09T01:12:46.954Z,42.41
2022-12-09T01:13:19.374Z,42.26
2022-12-09T01:13:57.827Z,42.31
2022-12-09T01:14:30.192Z,42.19
2022-12-09T01:15:02.738Z,42.15
2022-12-09T01:15:37.740Z,42.24
2022-12-09T01:16:21.079Z,42.69
2022-12-09T01:16:56.481Z,42.46
2022-12-09T01:17:28.911Z,42.63
2022-12-09T01:18:01.309Z,42.64
2022-12-09T01:18:33.548Z,42.21
2022-12-09T01:19:10.341Z,42.55
2022-12-09T01:19:42.880Z,42.59
2022-12-09T01:20:15.139Z,42.50
2022-12-09T01:20:59.400Z,42.35
2022-12-09T01:21:32.855Z,42.21
2022-12-09T01:22:05.768Z,42.27
2022-12-09T01:22:40.789Z,42.39
2022-12-09T01:23:13.193Z,42.52
2022-12-09T01:23:45.854Z,42.57
2022-12-09T01:24:20.965Z,42.58
2022-12-09T01:24:55.162Z,42.50
2022-12-09T01:25:27.801Z,42.56
2022-12-09T01:26:02.670Z,42.48
2022-12-09T01:26:35.032Z,42.40
2022-12-09T01:27:10.069Z,42.77
2022-12-09T01:27:44.952Z,42.67
2022-12-09T01:28:17.212Z,42.17
2022-12-09T01:28:53.427Z,42.48
2022-12-09T01:29:25.933Z,42.29
2022-12-09T01:29:58.273Z,42.24
2022-12-09T01:30:33.291Z,42.69
2022-12-09T01:31:07.328Z,42.66
2022-12-09T01:31:40.017Z,42.27
2022-12-09T01:32:15.287Z,42.39
2022-12-09T01:32:47.839Z,42.25
2022-12-09T01:33:20.356Z,42.62
2022-12-09T01:33:57.731Z,42.65
2022-12-09T01:34:31.436Z,42.53
2022-12-09T01:35:05.156Z,42.62
2022-12-09T01:35:40.781Z,42.52
2022-12-09T01:36:18.200Z,42.70
2022-12-09T01:36:50.609Z,42.45
2022-12-09T01:37:22.970Z,42.55
2022-12-09T01:37:57.922Z,42.43
2022-12-09T01:38:30.171Z,42.31
2022-12-09T01:39:02.399Z,42.47
2022-12-09T01:39:37.599Z,42.63
2022-12-09T01:40:17.042Z,42.48
2022-12-09T01:40:49.453Z,42.45
2022-12-09T01:41:22.322Z,42.54
2022-12-09T01:41:57.223Z,42.70
2022-12-09T01:42:29.686Z,42.76
2022-12-09T01:43:04.709Z,42.31
2022-12-09T01:43:37.772Z,42.28
2022-12-09T01:44:15.072Z,42.28
2022-12-09T01:45:30.762Z,42.24
2022-12-09T01:46:06.247Z,42.65
2022-12-09T01:46:39.115Z,42.58
2022-12-09T01:47:24.389Z,42.60
2022-12-09T01:48:00.804Z,42.29
2022-12-09T01:48:35.035Z,42.37
2022-12-09T01:49:13.792Z,42.44
2022-12-09T01:49:48.422Z,42.19
2022-12-09T01:50:21.369Z,42.58
2022-12-09T01:50:59.603Z,42.44
2022-12-09T01:51:32.287Z,42.37
2022-12-09T01:52:12.561Z,42.14
2022-12-09T01:52:45.292Z,42.29
2022-12-09T01:53:19.103Z,42.69
2022-12-09T01:53:54.856Z,42.42
2022-12-09T01:54:27.363Z,42.25
2022-12-09T01:54:59.655Z,42.29
2022-12-09T01:55:32.295Z,42.40
2022-12-09T01:56:10.716Z,42.55
2022-12-09T01:56:43.081Z,42.54
2022-12-09T01:57:15.894Z,42.29
2022-12-09T01:57:51.211Z,42.40
2022-12-09T01:58:26.562Z,42.46
2022-12-09T01:59:01.769Z,42.65
2022-12-09T01:59:36.808Z,42.51
2022-12-09T02:00:11.155Z,42.62
2022-12-09T02:00:49.470Z,42.62
2022-12-09T02:01:27.860Z,42.53
2022-12-09T02:02:01.882Z,42.43
2022-12-09T02:02:36.908Z,42.15
2022-12-09T02:03:12.560Z,42.51
2022-12-09T02:03:45.639Z,42.18
2022-12-09T02:04:18.188Z,42.14
2022-12-09T02:04:53.531Z,42.21
2022-12-09T02:05:29.239Z,42.61
2022-12-09T02:06:04.563Z,42.59
2022-12-09T02:06:40.435Z,42.53
2022-12-09T02:07:15.725Z,42.38
2022-12-09T02:07:48.315Z,42.30
2022-12-09T02:08:24.193Z,42.29
2022-12-09T02:08:57.660Z,42.74
2022-12-09T02:09:32.225Z,43.44
2022-12-09T02:10:11.740Z,43.88
2022-12-09T02:10:56.871Z,43.84
2022-12-09T02:11:40.912Z,43.79
2022-12-09T02:12:15.387Z,43.04
2022-12-09T02:12:53.944Z,42.55
2022-12-09T02:13:37.112Z,42.63
2022-12-09T02:14:17.330Z,42.38
2022-12-09T02:15:02.009Z,41.84
2022-12-09T02:15:41.215Z,41.49
2022-12-09T02:16:17.898Z,41.54
2022-12-09T02:16:57.201Z,40.92
2022-12-09T02:17:36.962Z,40.67
2022-12-09T02:18:15.736Z,40.89
2022-12-09T02:18:55.195Z,40.18
2022-12-09T02:19:41.273Z,40.39
2022-12-09T02:20:19.315Z,39.94
2022-12-09T02:20:59.425Z,39.60
2022-12-09T02:21:35.096Z,39.54
2022-12-09T02:22:08.712Z,39.84
2022-12-09T02:22:47.029Z,39.63
2022-12-09T02:23:23.703Z,39.60
2022-12-09T02:24:03.078Z,38.14
2022-12-09T02:24:41.937Z,38.13
2022-12-09T02:25:22.780Z,38.11
2022-12-09T02:26:00.859Z,38.58
2022-12-09T02:26:39.203Z,38.58
2022-12-09T02:27:17.756Z,38.78
2022-12-09T02:27:57.614Z,38.88
2022-12-09T02:29:02.655Z,39.09
2022-12-09T02:29:51.244Z,39.43
2022-12-09T02:30:25.189Z,39.63
2022-12-09T02:31:04.643Z,39.87
2022-12-09T02:31:58.014Z,40.16
2022-12-09T02:33:05.085Z,40.04
2022-12-09T02:33:46.237Z,40.60
2022-12-09T02:34:23.938Z,40.69
2022-12-09T02:35:08.405Z,40.38
2022-12-09T02:35:47.417Z,40.67
2022-12-09T02:36:21.549Z,40.70
2022-12-09T02:36:59.678Z,40.80
2022-12-09T02:37:38.359Z,40.79
2022-12-09T02:38:12.647Z,40.80
2022-12-09T02:38:45.136Z,41.05
2022-12-09T02:39:21.906Z,41.23
2022-12-09T02:39:57.894Z,41.23
2022-12-09T02:40:34.715Z,40.89
2022-12-09T02:41:12.536Z,41.04
2022-12-09T02:41:50.154Z,41.46
2022-12-09T02:42:24.768Z,41.17
2022-12-09T02:43:01.853Z,41.39
2022-12-09T02:43:38.561Z,41.37
2022-12-09T02:44:16.449Z,41.72
2022-12-09T02:44:50.119Z,41.39
2022-12-09T02:45:26.976Z,41.75
2022-12-09T02:46:03.596Z,41.68
2022-12-09T02:46:36.944Z,41.36
2022-12-09T02:47:16.752Z,41.49
2022-12-09T02:47:54.677Z,41.58
2022-12-09T02:48:32.367Z,41.74
2022-12-09T02:49:06.744Z,41.56
2022-12-09T02:49:44.915Z,41.44
2022-12-09T02:50:21.122Z,41.56
2022-12-09T02:50:54.253Z,41.74
2022-12-09T02:51:30.871Z,41.92
2022-12-09T02:52:04.261Z,41.61
2022-12-09T02:52:37.128Z,41.62
2022-12-09T02:53:14.183Z,41.72
2022-12-09T02:53:49.079Z,41.62
2022-12-09T02:54:22.894Z,41.55
2022-12-09T02:55:00.896Z,41.67
2022-12-09T02:55:33.685Z,41.89
2022-12-09T02:56:07.768Z,41.74
2022-12-09T02:56:45.608Z,42.12
2022-12-09T02:57:19.944Z,41.66
2022-12-09T02:57:54.444Z,41.98
2022-12-09T02:58:29.375Z,42.09
2022-12-09T02:59:02.470Z,42.06
2022-12-09T02:59:35.030Z,42.09
2022-12-09T03:00:11.947Z,41.76
2022-12-09T03:00:45.062Z,42.12
2022-12-09T03:01:21.923Z,41.83
2022-12-09T03:02:04.071Z,42.07
2022-12-09T03:02:38.688Z,41.79
2022-12-09T03:03:17.737Z,42.10
2022-12-09T03:03:51.320Z,41.88
2022-12-09T03:04:24.994Z,41.93
2022-12-09T03:05:11.460Z,42.19
2022-12-09T03:05:49.499Z,42.29
2022-12-09T03:06:24.212Z,41.93
2022-12-09T03:07:02.788Z,42.21
2022-12-09T03:07:41.490Z,42.14
2022-12-09T03:08:17.845Z,41.85
2022-12-09T03:08:58.387Z,42.21
2022-12-09T03:09:34.051Z,41.82
2022-12-09T03:10:11.855Z,41.90
2022-12-09T03:10:54.174Z,42.24
2022-12-09T03:11:27.391Z,41.94
2022-12-09T03:12:02.701Z,41.90
2022-12-09T03:12:38.384Z,41.90
2022-12-09T03:13:12.971Z,42.25
2022-12-09T03:13:52.516Z,41.80
2022-12-09T03:14:31.358Z,42.23
2022-12-09T03:15:06.948Z,42.09
2022-12-09T03:15:44.150Z,42.10
2022-12-09T03:16:25.246Z,41.82
2022-12-09T03:17:02.350Z,42.18
2022-12-09T03:17:36.887Z,42.08
2022-12-09T03:18:11.095Z,41.90
2022-12-09T03:18:50.027Z,41.89
2022-12-09T03:19:27.226Z,41.84
2022-12-09T03:20:08.943Z,42.33
2022-12-09T03:20:42.290Z,42.07
2022-12-09T03:21:17.893Z,41.84
2022-12-09T03:21:54.043Z,42.00
2022-12-09T03:22:29.283Z,42.20
2022-12-09T03:23:06.489Z,42.24
2022-12-09T03:23:39.190Z,42.01
2022-12-09T03:24:13.636Z,41.85
2022-12-09T03:24:53.095Z,41.85
2022-12-09T03:25:29.816Z,42.12
2022-12-09T03:26:04.651Z,41.94
2022-12-09T03:26:40.748Z,42.08
2022-12-09T03:27:16.404Z,42.21
2022-12-09T03:27:52.905Z,42.17
2022-12-09T03:28:31.983Z,42.10
2022-12-09T03:29:08.141Z,42.21
2022-12-09T03:29:43.383Z,41.88
2022-12-09T03:30:19.209Z,42.20
2022-12-09T03:30:53.951Z,42.56
2022-12-09T03:31:28.344Z,43.37
2022-12-09T03:32:03.717Z,43.59
2022-12-09T03:32:38.480Z,43.07
2022-12-09T03:33:12.195Z,42.66
2022-12-09T03:33:48.113Z,42.81
2022-12-09T03:34:23.437Z,42.33
2022-12-09T03:35:04.566Z,41.89
2022-12-09T03:35:41.809Z,41.80
2022-12-09T03:36:14.881Z,41.54
2022-12-09T03:36:49.206Z,41.56
2022-12-09T03:37:24.357Z,41.09
2022-12-09T03:37:57.610Z,41.29
2022-12-09T03:38:33.228Z,41.18
2022-12-09T03:39:09.920Z,40.80
2022-12-09T03:39:43.251Z,40.82
2022-12-09T03:40:18.787Z,40.66
2022-12-09T03:40:58.754Z,40.67
2022-12-09T03:41:32.669Z,40.33
2022-12-09T03:42:07.874Z,40.59
2022-12-09T03:42:54.243Z,40.58
2022-12-09T03:43:28.262Z,40.13
2022-12-09T03:44:05.278Z,40.45
2022-12-09T03:44:42.712Z,40.29
2022-12-09T03:45:16.560Z,40.34
2022-12-09T03:45:49.103Z,40.40
2022-12-09T03:46:25.186Z,39.96
2022-12-09T03:46:57.665Z,40.12
2022-12-09T03:47:30.373Z,40.23
2022-12-09T03:48:06.302Z,40.21
2022-12-09T03:48:38.537Z,39.88
2022-12-09T03:49:14.270Z,39.98
2022-12-09T03:49:46.491Z,39.70
2022-12-09T03:50:22.541Z,40.13
2022-12-09T03:50:59.675Z,39.70
2022-12-09T03:51:35.321Z,39.84
2022-12-09T03:52:10.771Z,39.96
2022-12-09T03:52:48.391Z,39.74
2022-12-09T03:53:22.724Z,39.72
2022-12-09T03:53:59.431Z,39.96
2022-12-09T03:54:37.993Z,39.77
2022-12-09T03:55:28.705Z,39.65
2022-12-09T03:56:10.411Z,39.99
2022-12-09T03:56:45.640Z,39.82
2022-12-09T03:57:19.874Z,39.93
2022-12-09T03:57:58.790Z,39.55
2022-12-09T03:58:34.048Z,39.52
2022-12-09T03:59:13.843Z,39.56
2022-12-09T03:59:50.916Z,39.65
2022-12-09T04:00:23.283Z,39.56
2022-12-09T04:00:58.571Z,39.68
2022-12-09T04:01:32.886Z,39.60
2022-12-09T04:02:08.586Z,39.65
2022-12-09T04:02:41.086Z,39.92
2022-12-09T04:03:14.846Z,39.46
2022-12-09T04:03:52.240Z,39.50
2022-12-09T04:04:24.707Z,39.64
2022-12-09T04:04:57.204Z,39.87
2022-12-09T04:05:35.109Z,39.59
2022-12-09T04:06:08.370Z,39.79
2022-12-09T04:06:40.701Z,39.72
2022-12-09T04:07:15.919Z,39.69
2022-12-09T04:07:48.190Z,39.82
2022-12-09T04:08:20.775Z,39.70
2022-12-09T04:09:00.868Z,39.77
2022-12-09T04:09:34.567Z,39.60
2022-12-09T04:10:11.267Z,39.53
2022-12-09T04:10:43.731Z,39.39
2022-12-09T04:11:16.000Z,39.33
2022-12-09T04:11:50.971Z,39.67
2022-12-09T04:12:23.657Z,39.75
2022-12-09T04:12:55.927Z,39.51
2022-12-09T04:13:30.744Z,39.40
2022-12-09T04:14:03.723Z,39.82
2022-12-09T04:14:36.509Z,39.75
2022-12-09T04:15:12.721Z,39.79
2022-12-09T04:15:44.978Z,39.58
2022-12-09T04:16:17.249Z,39.48
2022-12-09T04:16:52.454Z,39.58
2022-12-09T04:17:24.952Z,39.55
2022-12-09T04:17:57.493Z,39.50
2022-12-09T04:18:32.948Z,39.48
2022-12-09T04:19:05.614Z,39.37
2022-12-09T04:19:38.203Z,39.43
2022-12-09T04:20:14.897Z,39.82
2022-12-09T04:20:50.591Z,39.52
2022-12-09T04:21:22.854Z,39.36
2022-12-09T04:21:57.726Z,39.60
2022-12-09T04:22:30.630Z,39.53
2022-12-09T04:23:03.020Z,39.49
2022-12-09T04:23:40.857Z,39.35
2022-12-09T04:24:17.982Z,39.27
2022-12-09T04:24:50.355Z,39.35
2022-12-09T04:25:22.887Z,39.30
2022-12-09T04:25:57.836Z,39.53
2022-12-09T04:26:30.382Z,39.78
2022-12-09T04:27:03.010Z,39.53
2022-12-09T04:27:38.265Z,39.57
2022-12-09T04:28:10.557Z,39.67
2022-12-09T04:28:43.286Z,39.55
2022-12-09T04:29:18.370Z,39.67
2022-12-09T04:29:50.713Z,39.58
2022-12-09T04:30:23.007Z,39.31
2022-12-09T04:30:58.082Z,39.27
2022-12-09T04:31:30.841Z,39.18
2022-12-09T04:32:03.551Z,39.25
2022-12-09T04:32:38.741Z,39.41
2022-12-09T04:33:11.369Z,39.48
2022-12-09T04:33:44.182Z,39.65
2022-12-09T04:34:16.455Z,39.52
2022-12-09T04:34:51.621Z,39.67
2022-12-09T04:35:24.939Z,39.65
2022-12-09T04:36:05.045Z,39.39
2022-12-09T04:36:40.042Z,39.26
2022-12-09T04:37:13.244Z,39.52
2022-12-09T04:37:48.092Z,39.58
2022-12-09T04:38:20.335Z,39.14
2022-12-09T04:38:52.548Z,39.21
2022-12-09T04:39:27.718Z,39.35
2022-12-09T04:40:00.230Z,39.55
2022-12-09T04:40:32.630Z,39.38
2022-12-09T04:41:07.830Z,39.62
2022-12-09T04:41:40.072Z,39.13
2022-12-09T04:42:12.284Z,39.24
2022-12-09T04:42:47.428Z,39.31
2022-12-09T04:43:19.807Z,39.10
2022-12-09T04:43:52.036Z,39.42
2022-12-09T04:44:26.916Z,39.18
2022-12-09T04:44:59.422Z,39.38
2022-12-09T04:45:31.927Z,39.08
2022-12-09T04:46:09.001Z,39.24
2022-12-09T04:46:41.403Z,39.50
2022-12-09T04:47:13.705Z,39.34
2022-12-09T04:47:49.436Z,39.44
2022-12-09T04:48:21.851Z,39.23
2022-12-09T04:48:56.877Z,39.09
2022-12-09T04:49:31.071Z,39.09
2022-12-09T04:50:03.729Z,39.23
2022-12-09T04:50:38.706Z,39.44
2022-12-09T04:51:15.494Z,39.43
2022-12-09T04:51:47.816Z,39.07
2022-12-09T04:52:22.989Z,39.35
2022-12-09T04:52:55.338Z,39.09
2022-12-09T04:53:28.012Z,39.32
2022-12-09T04:54:03.081Z,39.46
2022-12-09T04:54:35.658Z,39.02
2022-12-09T04:55:08.989Z,39.22
2022-12-09T04:55:43.876Z,39.28
2022-12-09T04:56:19.096Z,39.11
2022-12-09T04:56:51.505Z,39.06
2022-12-09T04:57:26.625Z,39.15
2022-12-09T04:57:58.877Z,39.52
2022-12-09T04:58:31.854Z,39.59
2022-12-09T04:59:07.940Z,39.31
2022-12-09T04:59:40.210Z,39.03
2022-12-09T05:00:14.175Z,39.15
2022-12-09T05:00:49.523Z,39.03
2022-12-09T05:01:29.805Z,39.12
2022-12-09T05:02:02.997Z,39.07
2022-12-09T05:02:38.220Z,39.07
2022-12-09T05:03:10.684Z,39.09
2022-12-09T05:03:43.711Z,39.04
2022-12-09T05:04:18.857Z,39.43
2022-12-09T05:04:51.617Z,39.26
2022-12-09T05:05:24.341Z,39.48
2022-12-09T05:05:59.333Z,39.37
2022-12-09T05:06:34.547Z,39.23
2022-12-09T05:07:09.709Z,39.40
2022-12-09T05:07:42.397Z,39.36
2022-12-09T05:08:14.963Z,39.03
2022-12-09T05:08:50.684Z,39.37
2022-12-09T05:09:23.250Z,39.26
2022-12-09T05:09:55.913Z,39.09
2022-12-09T05:10:30.968Z,39.27
2022-12-09T05:11:04.098Z,39.22
2022-12-09T05:11:36.877Z,39.39
2022-12-09T05:12:12.046Z,39.03
2022-12-09T05:12:44.304Z,39.54
2022-12-09T05:13:16.707Z,38.99
2022-12-09T05:13:51.918Z,39.15
2022-12-09T05:14:24.259Z,39.55
2022-12-09T05:14:59.106Z,39.09
2022-12-09T05:15:31.682Z,39.27
2022-12-09T05:16:12.174Z,39.50
2022-12-09T05:16:50.838Z,39.11
2022-12-09T05:17:23.408Z,39.49
2022-12-09T05:17:56.144Z,39.54
2022-12-09T05:18:31.614Z,39.54
2022-12-09T05:19:04.165Z,39.34
2022-12-09T05:19:36.752Z,39.09
2022-12-09T05:20:13.164Z,39.59
2022-12-09T05:20:46.094Z,39.37
2022-12-09T05:21:20.127Z,39.10
2022-12-09T05:21:58.124Z,39.59
2022-12-09T05:22:31.475Z,39.19
2022-12-09T05:23:09.141Z,39.14
2022-12-09T05:23:45.099Z,39.25
2022-12-09T05:24:17.822Z,39.56
2022-12-09T05:24:50.351Z,39.16
2022-12-09T05:25:25.552Z,39.26
2022-12-09T05:25:57.849Z,39.43
2022-12-09T05:26:30.179Z,39.58
2022-12-09T05:27:05.391Z,39.55
2022-12-09T05:27:37.748Z,39.50
2022-12-09T05:28:10.139Z,39.43
2022-12-09T05:28:42.472Z,39.24
2022-12-09T05:29:22.526Z,39.20
2022-12-09T05:29:55.941Z,39.60
2022-12-09T05:30:28.378Z,39.67
2022-12-09T05:31:04.195Z,39.31
2022-12-09T05:31:36.605Z,39.21
2022-12-09T05:32:10.059Z,39.67
2022-12-09T05:32:46.209Z,39.65
2022-12-09T05:33:18.616Z,39.68
2022-12-09T05:33:54.748Z,39.63
2022-12-09T05:34:27.399Z,39.22
2022-12-09T05:34:59.800Z,39.43
2022-12-09T05:35:42.608Z,39.38
2022-12-09T05:36:24.319Z,39.27
2022-12-09T05:37:02.305Z,39.53
2022-12-09T05:37:35.050Z,39.28
2022-12-09T05:38:07.404Z,39.45
2022-12-09T05:38:42.566Z,39.41
2022-12-09T05:39:15.287Z,39.56
2022-12-09T05:39:47.646Z,39.41
2022-12-09T05:40:22.974Z,39.48
2022-12-09T05:40:55.325Z,39.60
2022-12-09T05:41:28.010Z,39.45
2022-12-09T05:42:03.142Z,39.46
2022-12-09T05:42:41.124Z,39.59
2022-12-09T05:43:13.890Z,39.33
2022-12-09T05:43:49.519Z,39.63
2022-12-09T05:44:22.029Z,39.59
2022-12-09T05:44:57.651Z,39.72
2022-12-09T05:45:30.136Z,39.28
2022-12-09T05:46:03.053Z,39.57
2022-12-09T05:46:38.222Z,39.70
2022-12-09T05:47:10.702Z,39.63
2022-12-09T05:47:43.347Z,39.31
2022-12-09T05:48:18.701Z,39.48
2022-12-09T05:48:51.225Z,39.46
2022-12-09T05:49:26.890Z,39.48
2022-12-09T05:50:04.399Z,39.70
2022-12-09T05:50:40.048Z,39.65
2022-12-09T05:51:17.462Z,39.61
2022-12-09T05:51:49.755Z,39.31
2022-12-09T05:52:24.625Z,39.34
2022-12-09T05:52:59.757Z,40.35
2022-12-09T05:53:32.261Z,40.77
2022-12-09T05:54:08.562Z,40.52
2022-12-09T05:54:41.624Z,40.44
2022-12-09T05:55:14.250Z,40.79
2022-12-09T05:55:49.249Z,40.88
2022-12-09T05:56:23.487Z,40.74
2022-12-09T05:56:57.442Z,41.49
2022-12-09T05:57:32.551Z,41.55
2022-12-09T05:58:05.231Z,41.75
2022-12-09T05:58:37.549Z,41.37
2022-12-09T05:59:13.214Z,41.56
2022-12-09T05:59:45.503Z,41.63
2022-12-09T06:00:18.699Z,41.79
2022-12-09T06:00:56.858Z,41.53
2022-12-09T06:01:29.963Z,40.18
2022-12-09T06:02:08.320Z,40.25
2022-12-09T06:02:44.762Z,40.26
2022-12-09T06:03:17.893Z,40.36
2022-12-09T06:03:54.214Z,40.60
2022-12-09T06:04:27.093Z,40.70
2022-12-09T06:04:59.582Z,41.02
2022-12-09T06:05:35.377Z,41.25
2022-12-09T06:06:09.482Z,41.33
2022-12-09T06:06:45.142Z,41.23
2022-12-09T06:07:17.970Z,41.19
2022-12-09T06:07:53.154Z,41.72
2022-12-09T06:08:28.300Z,41.95
2022-12-09T06:09:01.791Z,42.05
2022-12-09T06:09:34.575Z,41.86
2022-12-09T06:10:11.660Z,42.26
2022-12-09T06:10:44.291Z,42.37
2022-12-09T06:11:18.313Z,42.12
2022-12-09T06:11:53.657Z,42.49
2022-12-09T06:12:26.283Z,42.52
2022-12-09T06:12:58.916Z,42.41
2022-12-09T06:13:34.114Z,42.67
2022-12-09T06:14:08.315Z,42.54
2022-12-09T06:14:43.245Z,42.54
2022-12-09T06:15:21.259Z,42.77
2022-12-09T06:15:54.121Z,42.90
2022-12-09T06:16:29.274Z,42.61
2022-12-09T06:17:01.760Z,42.88
2022-12-09T06:17:34.364Z,42.94
2022-12-09T06:18:09.744Z,42.89
2022-12-09T06:18:42.674Z,43.09
2022-12-09T06:19:15.336Z,42.88
2022-12-09T06:19:50.571Z,42.84
2022-12-09T06:20:22.945Z,42.77
2022-12-09T06:20:55.236Z,42.78
2022-12-09T06:21:30.521Z,42.77
2022-12-09T06:22:02.888Z,43.18
2022-12-09T06:22:35.644Z,43.12
2022-12-09T06:23:13.103Z,43.44
2022-12-09T06:23:45.640Z,43.08
2022-12-09T06:24:20.699Z,43.31
2022-12-09T06:24:57.095Z,43.54
2022-12-09T06:25:29.694Z,43.18
2022-12-09T06:26:02.324Z,43.27
2022-12-09T06:26:37.551Z,43.24
2022-12-09T06:27:09.925Z,43.26
2022-12-09T06:27:42.818Z,43.64
2022-12-09T06:28:19.712Z,43.29
2022-12-09T06:28:52.883Z,43.47
2022-12-09T06:29:28.203Z,43.55
2022-12-09T06:30:00.699Z,43.21
2022-12-09T06:30:35.960Z,43.19
2022-12-09T06:31:08.299Z,43.44
2022-12-09T06:31:41.418Z,43.40
2022-12-09T06:32:16.540Z,43.46
2022-12-09T06:32:49.153Z,43.04
2022-12-09T06:33:52.357Z,43.37
2022-12-09T06:34:16.577Z,43.40
2022-12-09T06:34:49.089Z,43.18
2022-12-09T06:35:22.079Z,43.23
2022-12-09T06:35:57.251Z,42.95
2022-12-09T06:36:31.183Z,43.01
2022-12-09T06:37:04.008Z,43.11
2022-12-09T06:37:39.156Z,43.36
2022-12-09T06:38:14.182Z,42.82
2022-12-09T06:38:49.507Z,43.28
2022-12-09T06:39:21.796Z,43.25
2022-12-09T06:39:54.420Z,42.87
2022-12-09T06:40:29.570Z,42.91
2022-12-09T06:41:06.468Z,43.18
2022-12-09T06:41:43.944Z,43.15
2022-12-09T06:42:16.262Z,42.79
2022-12-09T06:42:50.561Z,43.08
2022-12-09T06:43:25.927Z,43.08
2022-12-09T06:43:58.895Z,42.79
2022-12-09T06:44:34.262Z,43.09
2022-12-09T06:45:08.111Z,42.94
2022-12-09T06:45:40.600Z,42.87
2022-12-09T06:46:16.237Z,42.91
2022-12-09T06:46:48.766Z,42.96
2022-12-09T06:47:24.154Z,42.69
2022-12-09T06:47:56.574Z,43.05
2022-12-09T06:48:31.655Z,43.06
2022-12-09T06:49:04.563Z,42.96
2022-12-09T06:49:37.144Z,43.06
2022-12-09T06:50:13.169Z,43.05
2022-12-09T06:50:45.858Z,43.13
2022-12-09T06:51:18.534Z,42.78
2022-12-09T06:51:53.534Z,42.80
2022-12-09T06:52:25.895Z,42.95
2022-12-09T06:52:58.537Z,42.89
2022-12-09T06:53:36.211Z,43.16
2022-12-09T06:54:10.304Z,42.92
2022-12-09T06:54:45.569Z,42.95
2022-12-09T06:55:18.140Z,42.70
2022-12-09T06:55:50.706Z,43.04
2022-12-09T06:56:26.248Z,42.91
2022-12-09T06:56:58.953Z,43.20
2022-12-09T06:57:34.037Z,43.08
2022-12-09T06:58:06.568Z,43.05
2022-12-09T06:58:39.297Z,42.96
2022-12-09T06:59:14.457Z,43.02
2022-12-09T06:59:46.924Z,42.73
2022-12-09T07:00:20.205Z,42.82
2022-12-09T07:00:55.350Z,42.73
2022-12-09T07:01:28.510Z,42.87
2022-12-09T07:02:03.756Z,43.09
2022-12-09T07:02:37.320Z,42.91
2022-12-09T07:03:11.934Z,42.66
2022-12-09T07:03:49.214Z,42.69
2022-12-09T07:04:23.208Z,42.71
2022-12-09T07:04:56.454Z,42.82
2022-12-09T07:05:31.625Z,43.25
2022-12-09T07:06:04.747Z,43.16
2022-12-09T07:06:41.161Z,42.65
2022-12-09T07:07:15.151Z,42.83
2022-12-09T07:07:53.950Z,42.91
2022-12-09T07:08:26.371Z,43.05
2022-12-09T07:09:04.139Z,42.77
2022-12-09T07:09:39.282Z,42.84
2022-12-09T07:10:12.244Z,43.18
2022-12-09T07:10:51.735Z,42.95
2022-12-09T07:11:29.289Z,43.16
2022-12-09T07:12:04.869Z,42.91
2022-12-09T07:12:37.270Z,43.04
2022-12-09T07:13:09.742Z,43.04
2022-12-09T07:13:44.867Z,43.25
2022-12-09T07:14:18.332Z,42.86
2022-12-09T07:14:53.582Z,42.78
2022-12-09T07:15:25.875Z,42.87
2022-12-09T07:16:00.957Z,43.06
2022-12-09T07:16:35.140Z,43.00
2022-12-09T07:17:10.564Z,42.97
2022-12-09T07:17:43.186Z,42.94
2022-12-09T07:18:16.020Z,43.13
2022-12-09T07:18:51.216Z,43.03
2022-12-09T07:19:24.003Z,42.83
2022-12-09T07:20:04.905Z,42.87
2022-12-09T07:20:39.094Z,42.90
2022-12-09T07:21:15.841Z,42.96
2022-12-09T07:21:49.395Z,43.28
2022-12-09T07:22:24.401Z,43.37
2022-12-09T07:22:56.824Z,42.93
2022-12-09T07:23:31.929Z,43.20
2022-12-09T07:24:07.716Z,43.08
2022-12-09T07:24:43.905Z,43.24
2022-12-09T07:25:16.376Z,42.95
2022-12-09T07:25:56.465Z,43.00
2022-12-09T07:26:33.685Z,43.11
2022-12-09T07:27:10.816Z,43.19
2022-12-09T07:27:47.915Z,43.23
2022-12-09T07:28:20.352Z,43.06
2022-12-09T07:28:53.138Z,43.25
2022-12-09T07:29:28.277Z,43.07
2022-12-09T07:30:01.250Z,42.86
2022-12-09T07:30:36.302Z,42.84